»·PEaware :: UAL361 KSFO-KSAN

UAL361 :: KSFO-KSAN

FLIGHT INFORMATION

Flight Status: Arrived
Operator:
United Airlines
More flights by this operator :: More flights under this callsign
Pilot: Brad Z. (13827)
Aircraft: AIRBUS A319
(A319)
More flights by this aircraft type
Origin: KSFO San Francisco Intl
United States
Destination: KSAN San Diego Intl-Lindbergh
United States
More flights between these airports :: More routes between these airports
Route: SSTIK3 CISKO FLW LAX COMIX2
File this flight plan on PilotEdge
Remarks:
Altitude:
(Current/Filed)
350ft
Speed:
(Current/Filed)
541kts
Departed: 01-Aug-18 05:00 PM
Arrived: 01-Aug-18 06:10 PM
Distance/Time
Traveled:
387nm/1:10
Distance/Time
To Go:
Arrived

Flight Plot

Page will automatically refresh every two minutes.

Flight plan parsing failed; only flown route is shown


Map Options




Map Legend


Flown Route
Filed Route
Departure Airport
Arrival Airport
Navaid (VOR, NDB)
Fix

Horizontal Profiles

Position Reports

Time Latitude Longitude Heading Altitude Ground
Speed
01-Aug-18 16:43 37.617722 -122.388855 156 27ft 0kts
01-Aug-18 16:44 37.617722 -122.388855 156 27ft 0kts
01-Aug-18 16:45 37.617722 -122.388855 156 27ft 0kts
01-Aug-18 16:46 37.617722 -122.388855 156 27ft 0kts
01-Aug-18 16:47 37.617722 -122.388855 156 27ft 0kts
01-Aug-18 16:48 37.617722 -122.388855 156 27ft 0kts
01-Aug-18 16:49 37.617722 -122.388855 156 27ft 0kts
01-Aug-18 16:50 37.617722 -122.388855 156 27ft 0kts
01-Aug-18 16:51 37.617989 -122.388982 165 27ft 2kts
01-Aug-18 16:52 37.618300 -122.388731 284 27ft 1kts
01-Aug-18 16:53 37.618300 -122.388731 284 27ft 0kts
01-Aug-18 16:54 37.618359 -122.388908 295 27ft 4kts
01-Aug-18 16:55 37.619842 -122.392262 329 27ft 15kts
01-Aug-18 16:56 37.622297 -122.388223 119 27ft 18kts
01-Aug-18 16:57 37.619040 -122.380489 123 27ft 27kts
01-Aug-18 16:58 37.613331 -122.381873 207 27ft 14kts
01-Aug-18 16:59 37.608954 -122.384674 158 27ft 14kts
01-Aug-18 17:00 37.608229 -122.382985 109 27ft 8kts
01-Aug-18 17:01 37.619114 -122.375469 27 50ft 145kts
01-Aug-18 17:02 37.659750 -122.363774 358 2106ft 174kts
01-Aug-18 17:03 37.713416 -122.378215 301 3911ft 235kts
01-Aug-18 17:04 37.687023 -122.446755 189 6552ft 283kts
01-Aug-18 17:05 37.606373 -122.456869 188 9515ft 298kts
01-Aug-18 17:06 37.521741 -122.469672 185 11757ft 326kts
01-Aug-18 17:07 37.438399 -122.414189 136 13682ft 368kts
01-Aug-18 17:08 37.363866 -122.322502 138 16186ft 379kts
01-Aug-18 17:09 37.286703 -122.229675 138 18513ft 390kts
01-Aug-18 17:10 37.207058 -122.134179 139 20566ft 403kts
01-Aug-18 17:11 37.124553 -122.035454 139 22432ft 415kts
01-Aug-18 17:12 37.039893 -121.934550 139 24080ft 426kts
01-Aug-18 17:13 36.952838 -121.831010 139 25603ft 436kts
01-Aug-18 17:14 36.864040 -121.725863 139 27014ft 445kts
01-Aug-18 17:15 36.773361 -121.618753 139 28319ft 454kts
01-Aug-18 17:16 36.680474 -121.509536 139 29561ft 462kts
01-Aug-18 17:17 36.586718 -121.399538 140 31084ft 461kts
01-Aug-18 17:18 36.493917 -121.291213 140 32724ft 455kts
01-Aug-18 17:19 36.401922 -121.184029 141 34209ft 450kts
01-Aug-18 17:20 36.307485 -121.084517 145 34989ft 444kts
01-Aug-18 17:21 36.211964 -120.986788 144 34972ft 444kts
01-Aug-18 17:22 36.116688 -120.889498 144 34959ft 445kts
01-Aug-18 17:23 36.021232 -120.792428 144 34923ft 445kts
01-Aug-18 17:24 35.925476 -120.695170 144 34967ft 444kts
01-Aug-18 17:25 35.830321 -120.599076 144 34944ft 444kts
01-Aug-18 17:26 35.734488 -120.502501 144 34921ft 444kts
01-Aug-18 17:27 35.638309 -120.405952 144 34928ft 445kts
01-Aug-18 17:28 35.542366 -120.310140 144 34991ft 444kts
01-Aug-18 17:29 35.446020 -120.214371 144 34997ft 445kts
01-Aug-18 17:30 35.350039 -120.119067 144 34998ft 444kts
01-Aug-18 17:31 35.254187 -120.024275 144 34967ft 443kts
01-Aug-18 17:32 35.157853 -119.929344 144 34919ft 445kts
01-Aug-18 17:33 35.064112 -119.829748 137 34977ft 450kts
01-Aug-18 17:34 34.977309 -119.719527 137 34995ft 450kts
01-Aug-18 17:35 34.890136 -119.610418 137 34974ft 447kts
01-Aug-18 17:36 34.803532 -119.502111 137 34896ft 447kts
01-Aug-18 17:37 34.716581 -119.393643 137 34943ft 446kts
01-Aug-18 17:38 34.629826 -119.285728 137 34991ft 448kts
01-Aug-18 17:39 34.542676 -119.177880 137 35068ft 448kts
01-Aug-18 17:40 34.455093 -119.069682 137 35037ft 448kts
01-Aug-18 17:41 34.367949 -118.962384 137 34992ft 447kts
01-Aug-18 17:42 34.280442 -118.854999 137 34927ft 447kts
01-Aug-18 17:43 34.192901 -118.747970 137 34923ft 450kts
01-Aug-18 17:44 34.106041 -118.641989 137 34005ft 450kts
01-Aug-18 17:45 34.017560 -118.534430 136 33014ft 452kts
01-Aug-18 17:46 33.928974 -118.426623 134 32025ft 455kts
01-Aug-18 17:47 33.842961 -118.315200 133 31034ft 453kts
01-Aug-18 17:48 33.757377 -118.204660 133 30038ft 447kts
01-Aug-18 17:49 33.674313 -118.095004 133 29045ft 441kts
01-Aug-18 17:50 33.592457 -117.987985 132 27339ft 426kts
01-Aug-18 17:51 33.513777 -117.890359 136 25052ft 401kts
01-Aug-18 17:52 33.432534 -117.797166 137 22717ft 402kts
01-Aug-18 17:53 33.349666 -117.708646 138 20401ft 394kts
01-Aug-18 17:54 33.268909 -117.622491 138 18190ft 384kts
01-Aug-18 17:55 33.189988 -117.539126 138 16038ft 375kts
01-Aug-18 17:56 33.110364 -117.460810 144 13890ft 367kts
01-Aug-18 17:57 33.027555 -117.392335 144 11783ft 358kts
01-Aug-18 17:58 32.950683 -117.327646 144 10842ft 311kts
01-Aug-18 17:59 32.885128 -117.272952 144 9920ft 272kts
01-Aug-18 18:00 32.822881 -117.221140 142 8106ft 268kts
01-Aug-18 18:01 32.796231 -117.140702 104 6930ft 266kts
01-Aug-18 18:02 32.775732 -117.053782 105 5991ft 285kts
01-Aug-18 18:03 32.742348 -116.978636 119 5413ft 249kts
01-Aug-18 18:04 32.702588 -116.923496 186 3911ft 240kts
01-Aug-18 18:05 32.659899 -116.976938 241 2988ft 223kts
01-Aug-18 18:06 32.649222 -117.039225 292 3159ft 163kts
01-Aug-18 18:07 32.676902 -117.070248 317 2424ft 116kts
01-Aug-18 18:08 32.700102 -117.096883 316 1768ft 127kts
01-Aug-18 18:09 32.719068 -117.131438 290 1189ft 124kts
01-Aug-18 18:10 32.728880 -117.170330 286 282ft 122kts
01-Aug-18 18:11 32.734169 -117.194979 224 29ft 10kts
01-Aug-18 18:12 32.734814 -117.199361 284 29ft 11kts
01-Aug-18 18:13 32.735833 -117.203287 287 29ft 6kts
01-Aug-18 18:14 32.734718 -117.205049 123 29ft 6kts
01-Aug-18 18:15 32.734487 -117.204599 121 29ft 0kts

Navigation Log

Ident Type
Flight plan parsing failed, navigation log unavailable